Time;durP1;ratioP1;P1;durP2;ratioP2;P2;SDS_P1;SDS_P2;PMS_P1;PMS_P2;Temp;Humidity;BMP_temperature;BMP_pressure;BME280_temperature;BME280_humidity;BME280_pressure;Samples;Min_cycle;Max_cycle;Signal;HPM_P1;HPM_P2
2021/11/25 07:50:32;;;;;;;;;;;;;;;;;;107059;1297;596332;-32
2021/11/25 07:52:57;;;;;;;;;;;;;;;;;;107154;1300;57446;-52
2021/11/25 07:55:23;;;;;;;;;;;;;;;;;;107192;1301;57490;-45
2021/11/25 07:57:49;;;;;;;;;;;;;;;;;;107206;1303;57465;-49
2021/11/25 08:00:15;;;;;;;;;;;;;;;;;;107173;1300;57472;-56
2021/11/25 08:02:40;;;;;;;;;;;;;;;;;;107189;1300;57475;-54
2021/11/25 08:05:06;;;;;;;;;;;;;;;;;;106983;1297;652294;-62
2021/11/25 08:07:32;;;;;;;;;;;;;;;;;;107478;1297;57971;-58
2021/11/25 08:09:57;;;;;;;;;;;;;;;;;;107450;1297;57530;-55
2021/11/25 08:12:23;;;;;;;;;;;;;;;;;;107359;1297;57537;-51
2021/11/25 08:14:48;;;;;;;;;;;;;;;;;;107521;1297;58118;-49
2021/11/25 08:17:14;;;;;;;;;;;;;;;;;;107485;1297;58093;-44
2021/11/25 08:19:42;;;;;;;;;;;;;;;;;;107464;1297;58135;-63
2021/11/25 08:29:52;;;;;;;;;;;;;;;;;;107189;1289;58119;-55
2021/11/25 08:32:18;;;;;;;;;;;;;;;;;;107091;1304;57863;-56
2021/11/25 08:34:43;;;;;;;;;;;;;;;;;;107038;1300;58113;-49
2021/11/25 08:37:08;;;;;;;;;;;;;;;;;;107026;1301;58118;-36
2021/11/25 08:39:36;;;;;;;;;;;;;;;;;;107107;1301;57499;-46
2021/11/25 08:42:02;;;;;;;;;;;;;;;;;;107076;1304;58078;-48
2021/11/25 08:44:28;;;;;;;;;;;;;;;;;;107056;1300;58122;-52
2021/11/25 08:46:53;;;;;;;;;;;;;;;;;;107049;1304;58135;-55
2021/11/25 08:49:19;;;;;;;;;;;;;;;;;;107088;1300;58115;-47
2021/11/25 08:51:44;;;;;;;;;;;;;;;;;;107111;1300;58128;-51
2021/11/25 08:54:10;;;;;;;;;;;;;;;;;;107121;1304;58099;-55
2021/11/25 08:56:35;;;;;;;;;;;;;;;;;;107063;1300;58125;-47
2021/11/25 08:59:01;;;;;;;;;;;;;;;;;;107071;1304;58212;-43
2021/11/25 09:01:26;;;;;;;;;;;;;;;;;;107052;1304;58087;-53
2021/11/25 09:03:52;;;;;;;;;;;;;;;;;;107066;1301;58118;-45
2021/11/25 09:06:18;;;;;;;;;;;;;;;;;;107096;1304;58195;-47
2021/11/25 09:08:43;;;;;;;;;;;;;;;;;;107046;1305;58155;-47
2021/11/25 09:11:10;;;;;;;;;;;;;;;;;;107027;1304;58128;-48
2021/11/25 09:13:35;;;;;;;;;;;;;;;;;;107029;1301;58176;-51
2021/11/25 09:16:01;;;;;;;;;;;;;;;;;;107016;1300;58173;-56
2021/11/25 09:18:26;;;;;;;;;;;;;;;;;;107035;1300;58042;-55
2021/11/25 09:20:52;;;;;;;;;;;;;;;;;;107022;1301;58132;-56
2021/11/25 09:23:18;;;;;;;;;;;;;;;;;;107096;1300;58100;-54
2021/11/25 09:25:44;;;;;;;;;;;;;;;;;;107050;1300;58176;-57
2021/11/25 09:28:09;;;;;;;;;;;;;;;;;;107016;1301;58487;-53
2021/11/25 09:30:35;;;;;;;;;;;;;;;;;;107043;1300;58119;-59
2021/11/25 09:33:00;;;;;;;;;;;;;;;;;;107034;1304;58119;-55
2021/11/25 09:35:26;;;;;;;;;;;;;;;;;;107058;1300;58186;-36
2021/11/25 09:37:51;;;;;;;;;;;;;;;;;;107019;1300;58122;-42
2021/11/25 09:40:23;;;;;;;;;;;;;;;;;;107043;1301;58129;-41
2021/11/25 09:42:49;;;;;;;;;;;;;;;;;;107042;1304;58129;-43
